Аэропорт: Большое Савино. Пермь

ICAO: USPP

METAR:
2019/03/26 13:00
USPP 261300Z 25008MPS 9999 SCT040CB 03/M03 Q1008 R21/290250 TEMPO 27010G18MPS RMK QFE745
METAR:
2019/03/26 12:21
TAF USPP 261058Z 2612/2712 26008MPS 9999 BKN016 
      TEMPO 2612/2618 28013MPS 1500 SHRASN BKN011CB 
      BECMG 2618/2620 20006MPS 
      BECMG 2700/2702 24006MPS